Главная страница
METAR-TAF:

METAR-TAF

Аэропорты :

Казвин, Иран

широта: 36-15N, долгота: 050-00E, высота над уровнем моря: 1278 м

Текущие метеонаблюдения

Эта сводка был подготовлена 1 час и 45 минут назад, в 17:00 UTC
Ветер 2 Узел от западный
Температура 20°C
Влажность 49%
Давление 1011 hPa
Видимость 10 км и более
Нет облачности ниже 1500 м, и нет кучево-дождевой облачности

METAR: OIIK 171700Z 28002KT CAVOK 20/09 Q1011

Время: 23:15 (18:45 UTC)


TAF: отсутствует

Метеонаблюдения и прогнозы для более 4000 аэропортов (сводки METAR и TAF).

Имеющиеся станции представлены на карте желтыми и красными точками.

Чтобы увидеть название станции, наведите на нее мышь.

Затем щелкните, чтобы увидеть метеонаблюдения и метеопрогнозы.

Управление картой: чтобы увеличить масштаб, щелкните зеленые кнопки с черным крестиком; чтобы уменьшить масштаб, щелкните зеленую кнопку с тире; для просмотра соседних карт щелкайте зеленые стрелки.


METAR-TAF: